createdAt,value
2023-05-09T00:01:09.254Z,17.65
2023-05-09T00:03:39.088Z,17.80
2023-05-09T00:06:13.674Z,18.35
2023-05-09T00:08:45.792Z,17.95
2023-05-09T00:11:15.641Z,18.63
2023-05-09T00:13:45.502Z,16.40
2023-05-09T00:16:16.349Z,17.15
2023-05-09T00:18:48.178Z,16.88
2023-05-09T00:21:20.666Z,17.95
2023-05-09T00:23:50.708Z,17.92
2023-05-09T00:26:21.989Z,19.50
2023-05-09T00:28:52.720Z,19.08
2023-05-09T00:31:24.066Z,18.58
2023-05-09T00:34:00.955Z,18.83
2023-05-09T00:36:33.519Z,18.63
2023-05-09T00:39:03.354Z,18.80
2023-05-09T00:41:33.173Z,19.38
2023-05-09T00:44:03.052Z,18.17
2023-05-09T00:46:33.011Z,17.25
2023-05-09T00:49:03.273Z,17.35
2023-05-09T00:51:36.664Z,18.08
2023-05-09T00:54:09.129Z,16.52
2023-05-09T00:56:40.004Z,17.77
2023-05-09T00:59:10.246Z,17.48
2023-05-09T01:01:40.092Z,16.77
2023-05-09T01:04:10.285Z,18.77
2023-05-09T01:06:55.307Z,18.23
2023-05-09T01:09:35.524Z,18.95
2023-05-09T01:12:15.605Z,19.90
2023-05-09T01:14:52.961Z,17.33
2023-05-09T01:17:34.529Z,19.85
2023-05-09T01:20:13.290Z,20.45
2023-05-09T01:22:51.547Z,19.20
2023-05-09T01:25:43.947Z,19.70
2023-05-09T01:28:19.828Z,19.07
2023-05-09T01:30:56.656Z,17.80
2023-05-09T01:33:29.386Z,18.63
2023-05-09T01:36:05.675Z,19.08
2023-05-09T01:38:36.320Z,19.00
2023-05-09T01:41:12.450Z,21.00
2023-05-09T01:43:45.418Z,22.17
2023-05-09T01:46:21.657Z,21.20
2023-05-09T01:48:53.478Z,18.90
2023-05-09T01:51:24.428Z,21.55
2023-05-09T01:53:58.164Z,19.63
2023-05-09T01:56:29.140Z,20.48
2023-05-09T01:59:00.833Z,20.77
2023-05-09T02:01:33.976Z,19.02
2023-05-09T02:04:06.360Z,19.98
2023-05-09T02:06:38.240Z,19.00
2023-05-09T02:09:08.751Z,17.88
2023-05-09T02:11:38.587Z,20.35
2023-05-09T02:14:08.438Z,20.33
2023-05-09T02:16:41.995Z,19.67
2023-05-09T02:19:11.905Z,18.92
2023-05-09T02:21:41.981Z,20.17
2023-05-09T02:24:11.875Z,18.52
2023-05-09T02:26:42.253Z,17.90
2023-05-09T02:29:13.775Z,17.05
2023-05-09T02:31:49.124Z,19.65
2023-05-09T02:34:21.102Z,18.80
2023-05-09T02:36:51.158Z,17.90
2023-05-09T02:39:22.884Z,21.02
2023-05-09T02:41:52.737Z,20.00
2023-05-09T02:44:22.534Z,19.67
2023-05-09T02:46:54.967Z,20.27
2023-05-09T02:49:32.004Z,20.10
2023-05-09T02:52:03.317Z,19.13
2023-05-09T02:54:33.286Z,19.52
2023-05-09T02:57:03.219Z,18.98
2023-05-09T02:59:33.613Z,20.00
2023-05-09T03:02:06.713Z,18.55
2023-05-09T03:04:36.753Z,18.00
2023-05-09T03:07:06.621Z,18.00
2023-05-09T03:09:39.246Z,19.65
2023-05-09T03:12:11.150Z,18.67
2023-05-09T03:14:41.034Z,18.80
2023-05-09T03:17:17.459Z,18.45
2023-05-09T03:19:47.328Z,19.67
2023-05-09T03:22:20.423Z,19.08
2023-05-09T03:24:50.265Z,17.45
2023-05-09T03:27:20.164Z,18.48
2023-05-09T03:29:50.009Z,17.90
2023-05-09T03:32:22.591Z,19.23
2023-05-09T03:34:52.595Z,17.95
2023-05-09T03:37:22.600Z,18.60
2023-05-09T03:39:56.067Z,18.00
2023-05-09T03:42:28.962Z,18.40
2023-05-09T03:44:58.780Z,18.63
2023-05-09T03:47:31.306Z,19.17
2023-05-09T03:50:01.135Z,17.33
2023-05-09T03:52:31.086Z,17.93
2023-05-09T03:55:00.937Z,17.88
2023-05-09T03:57:30.820Z,16.48
2023-05-09T04:00:00.642Z,16.95
2023-05-09T04:02:33.274Z,19.02
2023-05-09T04:05:03.891Z,22.23
2023-05-09T04:07:33.746Z,23.83
2023-05-09T04:10:03.719Z,25.57
2023-05-09T04:12:33.504Z,24.07
2023-05-09T04:15:03.817Z,23.37
2023-05-09T04:17:37.061Z,23.87
2023-05-09T04:20:08.471Z,21.48
2023-05-09T04:22:38.258Z,22.37
2023-05-09T04:25:12.699Z,22.73
2023-05-09T04:27:44.216Z,19.37
2023-05-09T04:30:15.042Z,18.23
2023-05-09T04:32:47.564Z,17.57
2023-05-09T04:35:20.345Z,18.70
2023-05-09T04:37:50.461Z,18.02
2023-05-09T04:40:20.317Z,21.17
2023-05-09T04:42:50.151Z,21.10
2023-05-09T04:45:20.323Z,21.65
2023-05-09T04:47:52.837Z,20.48
2023-05-09T04:50:22.890Z,20.50
2023-05-09T04:52:52.713Z,21.92
2023-05-09T04:55:22.516Z,21.83
2023-05-09T04:57:52.356Z,23.33
2023-05-09T05:00:23.072Z,25.15
2023-05-09T05:02:55.697Z,26.35
2023-05-09T05:05:26.092Z,26.85
2023-05-09T05:07:56.453Z,28.83
2023-05-09T05:10:26.336Z,29.92
2023-05-09T05:12:56.233Z,31.60
2023-05-09T05:15:27.140Z,28.35
2023-05-09T05:17:59.583Z,29.63
2023-05-09T05:20:29.414Z,28.80
2023-05-09T05:22:59.286Z,28.40
2023-05-09T05:25:29.492Z,38.33
2023-05-09T05:27:59.401Z,31.10
2023-05-09T05:30:29.341Z,35.70
2023-05-09T05:33:01.894Z,37.15
2023-05-09T05:35:36.810Z,37.60
2023-05-09T05:38:06.789Z,36.03
2023-05-09T05:40:36.621Z,35.57
2023-05-09T05:43:06.444Z,35.93
2023-05-09T05:45:36.355Z,32.97
2023-05-09T05:48:09.174Z,38.10
2023-05-09T05:50:39.581Z,38.03
2023-05-09T05:53:09.490Z,34.88
2023-05-09T05:55:39.384Z,35.90
2023-05-09T05:58:09.238Z,39.65
2023-05-09T06:00:39.093Z,41.05
2023-05-09T06:03:14.435Z,38.60
2023-05-09T06:05:45.960Z,37.45
2023-05-09T06:08:15.872Z,36.30
2023-05-09T06:10:46.082Z,39.03
2023-05-09T06:13:16.025Z,34.45
2023-05-09T06:15:45.979Z,43.03
2023-05-09T06:18:18.466Z,46.17
2023-05-09T06:20:48.261Z,37.33
2023-05-09T06:23:22.297Z,38.22
2023-05-09T06:25:52.227Z,35.97
2023-05-09T06:28:22.171Z,34.75
2023-05-09T06:30:52.126Z,32.53
2023-05-09T06:33:24.566Z,43.28
2023-05-09T06:35:55.342Z,41.72
2023-05-09T06:38:27.444Z,36.40
2023-05-09T06:40:57.243Z,39.72
2023-05-09T06:43:27.507Z,37.22
2023-05-09T06:45:57.599Z,38.83
2023-05-09T06:48:30.158Z,36.58
2023-05-09T06:50:59.947Z,35.55
2023-05-09T06:53:29.747Z,35.45
2023-05-09T06:55:59.702Z,37.63
2023-05-09T06:58:30.403Z,38.85
2023-05-09T07:01:00.523Z,32.97
2023-05-09T07:03:33.380Z,39.55
2023-05-09T07:06:03.235Z,35.45
2023-05-09T07:08:33.169Z,37.92
2023-05-09T07:11:06.078Z,39.45
2023-05-09T07:13:35.935Z,36.95
2023-05-09T07:16:05.780Z,35.58
2023-05-09T07:18:38.165Z,40.75
2023-05-09T07:21:09.513Z,40.58
2023-05-09T07:23:39.330Z,37.05
2023-05-09T07:26:09.250Z,38.38
2023-05-09T07:28:39.274Z,36.58
2023-05-09T07:31:09.636Z,36.22
2023-05-09T07:33:48.625Z,40.22
2023-05-09T07:36:19.318Z,41.80
2023-05-09T07:38:52.454Z,39.60
2023-05-09T07:41:24.915Z,38.97
2023-05-09T07:44:08.427Z,36.75
2023-05-09T07:46:42.250Z,37.38
2023-05-09T07:49:19.621Z,35.67
2023-05-09T07:51:51.947Z,38.70
2023-05-09T07:54:22.553Z,35.15
2023-05-09T07:56:52.375Z,34.63
2023-05-09T07:59:22.203Z,31.45
2023-05-09T08:01:52.066Z,33.13
2023-05-09T08:04:25.386Z,32.00
2023-05-09T08:06:55.199Z,30.77
2023-05-09T08:09:24.984Z,31.48
2023-05-09T08:11:54.822Z,29.70
2023-05-09T08:14:24.658Z,30.00
2023-05-09T08:16:54.537Z,30.67
2023-05-09T08:19:27.056Z,32.78
2023-05-09T08:21:56.897Z,30.83
2023-05-09T08:24:26.788Z,35.03
2023-05-09T08:26:56.658Z,31.85
2023-05-09T08:29:26.476Z,30.70
2023-05-09T08:31:56.368Z,32.38
2023-05-09T08:34:28.952Z,29.35
2023-05-09T08:36:58.778Z,27.33
2023-05-09T08:39:28.664Z,28.13
2023-05-09T08:42:02.969Z,33.90
2023-05-09T08:44:34.109Z,30.73
2023-05-09T08:47:05.777Z,29.95
2023-05-09T08:49:38.505Z,30.52
2023-05-09T08:52:08.761Z,31.13
2023-05-09T08:54:39.182Z,29.45
2023-05-09T08:57:09.503Z,30.77
2023-05-09T08:59:40.481Z,32.30
2023-05-09T09:02:16.361Z,30.05
2023-05-09T09:04:48.876Z,29.80
2023-05-09T09:07:19.084Z,30.05
2023-05-09T09:09:50.581Z,30.33
2023-05-09T09:12:21.301Z,31.08
2023-05-09T09:14:55.602Z,30.13
2023-05-09T09:17:30.992Z,32.00
2023-05-09T09:20:09.207Z,28.90
2023-05-09T09:22:42.355Z,30.70
2023-05-09T09:25:13.359Z,30.05
2023-05-09T09:27:43.519Z,35.00
2023-05-09T09:30:15.487Z,30.98
2023-05-09T09:32:45.568Z,31.45
2023-05-09T09:35:18.256Z,32.25
2023-05-09T09:37:48.348Z,30.17
2023-05-09T09:40:18.293Z,30.85
2023-05-09T09:42:50.333Z,30.98
2023-05-09T09:45:22.295Z,29.25
2023-05-09T09:47:54.025Z,32.00
2023-05-09T09:50:28.720Z,27.23
2023-05-09T09:53:00.756Z,31.80
2023-05-09T09:55:40.193Z,31.15
2023-05-09T09:58:28.341Z,29.17
2023-05-09T10:01:09.351Z,31.30
2023-05-09T10:03:40.909Z,28.63
2023-05-09T10:06:24.956Z,30.27
2023-05-09T10:08:59.201Z,28.85
2023-05-09T10:11:30.967Z,29.58
2023-05-09T10:14:05.332Z,29.88
2023-05-09T10:16:43.569Z,27.05
2023-05-09T10:19:15.966Z,25.20
2023-05-09T10:21:55.093Z,26.02
2023-05-09T10:24:31.182Z,25.88
2023-05-09T10:27:08.566Z,25.52
2023-05-09T10:29:40.661Z,25.92
2023-05-09T10:32:25.359Z,27.33
2023-05-09T10:35:07.142Z,24.73
2023-05-09T10:37:40.076Z,22.05
2023-05-09T10:40:16.694Z,24.08
2023-05-09T10:42:55.574Z,22.75
2023-05-09T10:45:25.878Z,23.45
2023-05-09T10:48:00.882Z,20.98
2023-05-09T10:50:31.371Z,22.13
2023-05-09T10:53:17.963Z,21.38
2023-05-09T10:55:59.200Z,22.75
2023-05-09T10:58:33.832Z,23.48
2023-05-09T11:01:07.599Z,25.30
2023-05-09T11:03:58.349Z,23.33
2023-05-09T11:06:45.471Z,21.95
2023-05-09T11:09:39.081Z,21.98
2023-05-09T11:12:17.446Z,20.15
2023-05-09T11:14:51.979Z,18.67
2023-05-09T11:17:34.819Z,15.93
2023-05-09T11:20:10.206Z,16.50
2023-05-09T11:22:44.819Z,15.95
2023-05-09T11:25:23.445Z,18.75
2023-05-09T11:27:54.790Z,20.67
2023-05-09T11:30:24.638Z,16.45
2023-05-09T11:32:59.313Z,16.10
2023-05-09T11:35:29.574Z,14.90
2023-05-09T11:38:04.294Z,14.43
2023-05-09T11:40:41.884Z,13.65
2023-05-09T11:43:14.236Z,14.23
2023-05-09T11:45:44.916Z,13.93
2023-05-09T11:48:20.654Z,13.88
2023-05-09T11:50:50.706Z,14.65
2023-05-09T11:53:20.517Z,14.30
2023-05-09T11:55:52.972Z,13.05
2023-05-09T11:58:23.355Z,13.63
2023-05-09T12:00:53.296Z,13.73
2023-05-09T12:03:25.679Z,13.70
2023-05-09T12:05:57.536Z,13.32
2023-05-09T12:08:28.720Z,12.70
2023-05-09T12:11:19.046Z,12.63
2023-05-09T12:13:50.324Z,12.25
2023-05-09T12:16:29.542Z,14.35
2023-05-09T12:19:02.405Z,14.88
2023-05-09T12:21:33.344Z,12.10
2023-05-09T12:24:06.187Z,13.55
2023-05-09T12:26:43.355Z,14.27
2023-05-09T12:29:14.392Z,13.93
2023-05-09T12:31:44.660Z,14.25
2023-05-09T12:34:19.624Z,13.38
2023-05-09T12:36:56.257Z,13.25
2023-05-09T12:39:30.248Z,12.52
2023-05-09T12:42:04.217Z,11.43
2023-05-09T12:44:38.190Z,12.38
2023-05-09T12:47:10.876Z,13.20
2023-05-09T12:49:40.828Z,10.45
2023-05-09T12:52:20.879Z,12.50
2023-05-09T12:54:54.995Z,12.32
2023-05-09T12:57:33.631Z,11.95
2023-05-09T13:00:07.645Z,13.38
2023-05-09T13:02:40.024Z,11.60
2023-05-09T13:05:11.646Z,12.52
2023-05-09T13:07:45.370Z,11.50
2023-05-09T13:10:21.545Z,11.77
2023-05-09T13:12:55.193Z,13.27
2023-05-09T13:15:29.908Z,13.40
2023-05-09T13:17:59.836Z,13.43
2023-05-09T13:20:33.996Z,13.98
2023-05-09T13:23:08.922Z,14.15
2023-05-09T13:25:38.750Z,14.32
2023-05-09T13:28:11.742Z,13.90
2023-05-09T13:30:46.394Z,15.18
2023-05-09T13:33:25.861Z,14.05
2023-05-09T13:36:04.098Z,14.07
2023-05-09T13:38:40.193Z,14.38
2023-05-09T13:41:15.202Z,14.57
2023-05-09T13:43:53.347Z,15.77
2023-05-09T13:49:13.761Z,17.10
2023-05-09T13:51:48.870Z,17.90
2023-05-09T13:54:20.745Z,22.20
2023-05-09T13:59:33.058Z,22.50
2023-05-09T14:02:04.054Z,19.38
2023-05-09T14:04:38.176Z,22.00
2023-05-09T14:07:15.402Z,19.33
2023-05-09T14:09:45.460Z,20.65
2023-05-09T14:12:18.053Z,21.45
2023-05-09T14:14:51.639Z,20.73
2023-05-09T14:17:21.530Z,20.48
2023-05-09T14:19:51.313Z,20.58
2023-05-09T14:22:21.803Z,20.98
2023-05-09T14:24:51.596Z,21.27
2023-05-09T14:27:21.782Z,21.95
2023-05-09T14:29:57.247Z,18.90
2023-05-09T14:32:27.458Z,19.50
2023-05-09T14:34:57.267Z,19.30
2023-05-09T14:37:27.204Z,19.02
2023-05-09T14:39:57.034Z,16.13
2023-05-09T14:42:27.005Z,16.90
2023-05-09T14:44:59.433Z,17.10
2023-05-09T14:47:29.278Z,14.20
2023-05-09T14:49:59.060Z,16.02
2023-05-09T14:52:29.019Z,13.93
2023-05-09T14:54:59.954Z,14.48
2023-05-09T14:57:32.574Z,13.45
2023-05-09T15:00:19.648Z,13.75
2023-05-09T15:02:53.526Z,13.05
2023-05-09T15:05:29.018Z,11.13
2023-05-09T15:08:08.009Z,13.90
2023-05-09T15:10:40.307Z,12.05
2023-05-09T15:13:24.931Z,12.30
2023-05-09T15:16:01.832Z,10.20
2023-05-09T15:18:37.159Z,10.50
2023-05-09T15:21:07.754Z,10.02
2023-05-09T15:23:45.357Z,10.85
2023-05-09T15:26:18.500Z,10.30
2023-05-09T15:28:50.551Z,10.63
2023-05-09T15:31:26.019Z,10.45
2023-05-09T15:33:57.376Z,9.73
2023-05-09T15:36:29.645Z,9.93
2023-05-09T15:39:02.133Z,9.20
2023-05-09T15:41:31.997Z,9.70
2023-05-09T15:44:04.502Z,9.50
2023-05-09T15:46:40.962Z,8.82
2023-05-09T15:49:13.750Z,8.40
2023-05-09T15:51:51.588Z,8.13
2023-05-09T15:54:26.410Z,7.60
2023-05-09T15:57:03.265Z,5.60
2023-05-09T15:59:34.725Z,6.18
2023-05-09T16:02:09.560Z,5.40
2023-05-09T16:04:39.423Z,4.60
2023-05-09T16:07:11.426Z,5.47
2023-05-09T16:09:45.487Z,5.03
2023-05-09T16:12:20.975Z,5.22
2023-05-09T16:14:50.766Z,5.55
2023-05-09T16:17:28.011Z,5.50
2023-05-09T16:19:58.715Z,6.15
2023-05-09T16:22:28.584Z,5.10
2023-05-09T16:24:58.398Z,6.05
2023-05-09T16:27:35.249Z,6.60
2023-05-09T16:30:07.659Z,7.05
2023-05-09T16:32:41.610Z,6.47
2023-05-09T16:35:17.286Z,5.78
2023-05-09T16:37:47.176Z,5.90
2023-05-09T16:40:26.682Z,6.15
2023-05-09T16:42:59.168Z,5.78
2023-05-09T16:45:29.058Z,5.50
2023-05-09T16:48:05.701Z,5.47
2023-05-09T16:50:38.373Z,4.95
2023-05-09T16:53:08.187Z,5.00
2023-05-09T16:55:40.241Z,4.90
2023-05-09T16:58:13.149Z,5.50
2023-05-09T17:00:53.165Z,5.45
2023-05-09T17:03:25.646Z,4.78
2023-05-09T17:05:56.751Z,4.78
2023-05-09T17:08:37.353Z,5.30
2023-05-09T17:11:07.938Z,4.40
2023-05-09T17:13:37.848Z,5.00
2023-05-09T17:16:10.416Z,4.38
2023-05-09T17:18:46.197Z,3.65
2023-05-09T17:21:17.191Z,4.05
2023-05-09T17:23:47.143Z,3.78
2023-05-09T17:26:17.171Z,3.58
2023-05-09T17:28:49.348Z,4.18
2023-05-09T17:31:19.217Z,3.83
2023-05-09T17:33:51.682Z,3.97
2023-05-09T17:36:21.499Z,3.88
2023-05-09T17:38:52.226Z,3.70
2023-05-09T17:41:22.445Z,3.83
2023-05-09T17:43:56.517Z,4.35
2023-05-09T17:46:26.608Z,3.97
2023-05-09T17:48:59.546Z,5.90
2023-05-09T17:51:29.688Z,7.70
2023-05-09T17:53:59.509Z,7.30
2023-05-09T17:56:29.294Z,5.30
2023-05-09T17:59:02.350Z,4.90
2023-05-09T18:01:32.228Z,4.40
2023-05-09T18:04:04.817Z,4.70
2023-05-09T18:06:34.687Z,4.13
2023-05-09T18:09:04.916Z,4.15
2023-05-09T18:11:34.732Z,4.07
2023-05-09T18:14:04.730Z,4.70
2023-05-09T18:16:34.793Z,4.78
2023-05-09T18:19:07.303Z,4.88
2023-05-09T18:21:37.340Z,5.18
2023-05-09T18:24:09.359Z,5.25
2023-05-09T18:26:42.434Z,4.68
2023-05-09T18:29:14.323Z,4.80
2023-05-09T18:31:44.194Z,4.32
2023-05-09T18:34:16.612Z,5.10
2023-05-09T18:36:50.329Z,4.05
2023-05-09T18:39:20.112Z,4.18
2023-05-09T18:41:50.009Z,3.80
2023-05-09T18:44:19.944Z,3.78
2023-05-09T18:46:52.873Z,4.22
2023-05-09T18:49:26.436Z,3.92
2023-05-09T18:51:56.682Z,3.90
2023-05-09T18:54:26.484Z,3.63
2023-05-09T18:56:59.374Z,3.67
2023-05-09T18:59:33.846Z,3.22
2023-05-09T19:02:03.616Z,3.40
2023-05-09T19:04:36.090Z,3.20
2023-05-09T19:07:06.649Z,3.40
2023-05-09T19:09:36.564Z,3.58
2023-05-09T19:12:06.509Z,3.38
2023-05-09T19:14:37.958Z,3.28
2023-05-09T19:17:11.306Z,3.33
2023-05-09T19:19:43.697Z,3.45
2023-05-09T19:22:16.114Z,3.95
2023-05-09T19:24:46.002Z,3.60
2023-05-09T19:27:15.848Z,3.42
2023-05-09T19:29:46.986Z,4.30
2023-05-09T19:32:18.548Z,4.10
2023-05-09T19:34:50.989Z,4.10
2023-05-09T19:37:21.633Z,3.50
2023-05-09T19:39:51.474Z,4.18
2023-05-09T19:42:24.611Z,4.03
2023-05-09T19:44:54.861Z,4.65
2023-05-09T19:47:24.661Z,4.07
2023-05-09T19:49:57.225Z,3.88
2023-05-09T19:52:27.061Z,4.30
2023-05-09T19:54:56.866Z,4.00
2023-05-09T19:57:26.714Z,4.60
2023-05-09T20:00:04.024Z,4.15
2023-05-09T20:02:34.889Z,4.20
2023-05-09T20:15:22.762Z,4.18
2023-05-09T20:17:52.666Z,4.07
2023-05-09T20:20:24.884Z,4.25
2023-05-09T20:29:50.561Z,4.30
2023-05-09T20:32:23.101Z,3.95
2023-05-09T20:34:53.042Z,4.47
